McLean, VA (22102)

12:17 PM EDT on August 01, 2015 (GMT -0400)
Potomac-GreatFalls Park Area | | Change Station
CLOSE
Current Station
Personal Weather Station
Location: Potomac, MD
Elevation: 259 ft
Nearby Weather Stations

Elev 259 ft 38.99 °N, 77.22 °W | Updated 1 minute ago

Partly Cloudy
Partly Cloudy
90.1 °F
Feels Like 93 °F
N
2.0
Wind Variable Wind from NW
Gusts 3.0 mph

Today
High -- | Low -- °F
--% Chance of Precip.
Yesterday
High -- | Low -- °F
Precip. -- in
6:09 AM 8:20 PM
Full, 98% visible
Pressure 29.90 in
Visibility 10.0 miles
Clouds Few 6500 ft
Mostly Cloudy 10000 ft
Mostly Cloudy 25000 ft
Heat Index 93 °F
Dew Point 67 °F
Humidity 47%
Rainfall 0.00 in
Snow Depth Not available.
UV 5 out of 12
Pollen 6.80 out of 12
Air Quality Not available.
Flu Activity Not available.
METAR KDCA 011552Z 28007KT 10SM FEW065 BKN100 BKN250 31/17 A2990 RMK AO2 SLP125 T03060167

More Conditions Fewer Conditions

Pressure 29.90 in
Visibility 10.0 miles
Clouds Few 6500 ft
Mostly Cloudy 10000 ft
Mostly Cloudy 25000 ft
Heat Index 93 °F
Dew Point 67 °F
Humidity 47%
Rainfall 0.00 in
Snow Depth Not available.
UV 5 out of 12
Pollen 6.80 out of 12
Air Quality Not available.
Flu Activity Not available.
METAR KDCA 011552Z 28007KT 10SM FEW065 BKN100 BKN250 31/17 A2990 RMK AO2 SLP125 T03060167

More Conditions Fewer Conditions

10-Day Weather Forecast

×

Almanac

Astronomy

Aug. 01, 2015 Rise Set
Actual Time
Civil Twilight
Nautical Twilight
Astronomical Twilight
Moon
Length of Visible Light
Length of Day
Tomorrow will be .
, % of the Moon is Illuminated

Today's Extremes

State Highs State Lows

Community

WunderPhotos

Upload Photos

1,842,975 photos uploaded!

WunderBlogs® & News

Nearby

Air Quality

  Air Quality AQ Index Pollutant
Not available.

Snow Depth

Station Depth Elevation

Earthquake Activity

City Distance Mag. Time & Date
Minimum magnitude displayed is 2.5.

Coastal Water Temperatures

Place Temperature

Stations

Nearby Weather Stations

Station Location Temp. Windchill Dew Point Humidity Wind Precip. Elev Updated Type